createdAt,value
2017-07-25T00:02:08.201Z,100165.42
2017-07-25T00:04:35.644Z,100163.70
2017-07-25T00:07:03.088Z,100158.94
2017-07-25T00:09:30.573Z,100165.91
2017-07-25T00:11:57.998Z,100165.48
2017-07-25T00:14:25.487Z,100158.59
2017-07-25T00:16:52.909Z,100156.80
2017-07-25T00:19:20.328Z,100154.59
2017-07-25T00:21:47.767Z,100150.72
2017-07-25T00:24:15.204Z,100147.27
2017-07-25T00:26:42.992Z,100142.86
2017-07-25T00:29:10.415Z,100137.13
2017-07-25T00:31:38.526Z,100138.09
2017-07-25T00:34:05.953Z,100135.13
2017-07-25T00:36:33.406Z,100140.37
2017-07-25T00:39:00.828Z,100139.41
2017-07-25T00:41:28.252Z,100142.98
2017-07-25T00:43:55.677Z,100142.92
2017-07-25T00:46:23.115Z,100134.78
2017-07-25T00:48:50.551Z,100129.95
2017-07-25T00:51:17.993Z,100135.67
2017-07-25T00:53:45.433Z,100133.95
2017-07-25T00:56:12.887Z,100142.30
2017-07-25T00:58:40.323Z,100139.67
2017-07-25T01:01:07.752Z,100134.43
2017-07-25T01:03:35.247Z,100134.43
2017-07-25T01:06:02.697Z,100139.25
2017-07-25T01:08:30.124Z,100130.98
2017-07-25T01:10:57.627Z,100138.49
2017-07-25T01:13:25.424Z,100143.67
2017-07-25T01:15:52.865Z,100138.49
2017-07-25T01:18:20.305Z,100135.39
2017-07-25T01:20:47.729Z,100135.39
2017-07-25T01:23:15.165Z,100134.56
2017-07-25T01:25:42.662Z,100131.94
2017-07-25T01:28:10.342Z,100131.94
2017-07-25T01:30:37.775Z,100134.98
2017-07-25T01:33:05.257Z,100129.31
2017-07-25T01:35:32.706Z,100129.80
2017-07-25T01:38:00.262Z,100129.80
2017-07-25T01:40:27.721Z,100125.04
2017-07-25T01:42:55.189Z,100123.73
2017-07-25T01:45:22.648Z,100128.97
2017-07-25T01:47:50.403Z,100123.73
2017-07-25T01:50:17.854Z,100122.52
2017-07-25T01:52:45.317Z,100125.20
2017-07-25T01:55:12.753Z,100121.69
2017-07-25T01:57:40.229Z,100122.17
2017-07-25T02:00:07.652Z,100119.48
2017-07-25T02:02:35.073Z,100122.84
2017-07-25T02:05:02.511Z,100109.51
2017-07-25T02:07:29.938Z,100112.09
2017-07-25T02:09:57.754Z,100110.34
2017-07-25T02:12:25.495Z,100110.63
2017-07-25T02:14:53.038Z,100117.31
2017-07-25T02:17:20.475Z,100120.68
2017-07-25T02:19:47.897Z,100126.52
2017-07-25T02:22:15.334Z,100122.20
2017-07-25T02:24:42.777Z,100129.16
2017-07-25T02:27:10.237Z,100120.86
2017-07-25T02:29:37.779Z,100119.63
2017-07-25T02:32:05.201Z,100118.47
2017-07-25T02:34:32.710Z,100118.49
2017-07-25T02:37:00.521Z,100119.17
2017-07-25T02:39:27.951Z,100119.38
2017-07-25T02:41:55.454Z,100123.38
2017-07-25T02:44:22.873Z,100116.92
2017-07-25T02:46:50.301Z,100114.44
2017-07-25T02:49:17.760Z,100123.27
2017-07-25T02:51:45.732Z,100111.95
2017-07-25T02:54:13.172Z,100122.02
2017-07-25T02:56:40.616Z,100125.95
2017-07-25T02:59:08.455Z,100117.19
2017-07-25T03:01:35.891Z,100122.50
2017-07-25T03:04:03.333Z,100117.33
2017-07-25T03:06:30.932Z,100116.49
2017-07-25T03:08:58.371Z,100115.59
2017-07-25T03:11:25.812Z,100114.77
2017-07-25T03:13:53.552Z,100117.80
2017-07-25T03:16:21.004Z,100113.52
2017-07-25T03:18:48.438Z,100113.52
2017-07-25T03:21:15.876Z,100114.42
2017-07-25T03:23:43.300Z,100107.45
2017-07-25T03:26:10.754Z,100110.55
2017-07-25T03:28:38.208Z,100114.07
2017-07-25T03:31:05.656Z,100109.73
2017-07-25T03:33:33.081Z,100113.66
2017-07-25T03:36:00.912Z,100105.80
2017-07-25T03:38:28.360Z,100102.76
2017-07-25T03:40:55.800Z,100098.92
2017-07-25T03:43:23.565Z,100098.00
2017-07-25T03:45:51.186Z,100096.38
2017-07-25T03:48:18.939Z,100088.51
2017-07-25T03:50:46.723Z,100089.34
2017-07-25T03:53:14.400Z,100093.47
2017-07-25T03:55:41.840Z,100088.16
2017-07-25T03:58:09.265Z,100094.78
2017-07-25T04:00:37.088Z,100086.98
2017-07-25T04:03:04.531Z,100089.19
2017-07-25T04:05:31.996Z,100083.47
2017-07-25T04:07:59.437Z,100086.98
2017-07-25T04:10:26.876Z,100091.33
2017-07-25T04:12:54.374Z,100083.95
2017-07-25T04:15:21.815Z,100079.95
2017-07-25T04:17:49.254Z,100076.02
2017-07-25T04:20:16.695Z,100070.42
2017-07-25T04:22:44.136Z,100076.08
2017-07-25T04:25:11.561Z,100071.73
2017-07-25T04:27:39.107Z,100081.33
2017-07-25T04:30:06.562Z,100082.22
2017-07-25T04:32:34.004Z,100078.36
2017-07-25T04:35:01.445Z,100074.84
2017-07-25T04:37:29.157Z,100070.91
2017-07-25T04:39:56.586Z,100071.39
2017-07-25T04:42:24.167Z,100067.52
2017-07-25T04:44:51.923Z,100067.94
2017-07-25T04:47:19.364Z,100066.70
2017-07-25T04:49:46.847Z,100062.77
2017-07-25T04:52:14.268Z,100062.28
2017-07-25T04:54:41.707Z,100058.77
2017-07-25T04:57:09.270Z,100058.83
2017-07-25T04:59:36.984Z,100047.87
2017-07-25T05:02:04.804Z,100047.04
2017-07-25T05:04:32.244Z,100050.97
2017-07-25T05:06:59.664Z,100047.04
2017-07-25T05:09:27.427Z,100047.45
2017-07-25T05:11:54.860Z,100044.90
2017-07-25T05:14:22.368Z,100052.28
2017-07-25T05:16:50.009Z,100052.28
2017-07-25T05:19:17.452Z,100050.08
2017-07-25T05:21:44.895Z,100049.25
2017-07-25T05:24:12.730Z,100053.59
2017-07-25T05:26:40.232Z,100051.80
2017-07-25T05:29:07.676Z,100054.48
2017-07-25T05:31:35.153Z,100046.14
2017-07-25T05:34:02.919Z,100054.42
2017-07-25T05:36:30.360Z,100045.25
2017-07-25T05:38:57.836Z,100049.59
2017-07-25T05:41:25.599Z,100050.84
2017-07-25T05:43:53.044Z,100053.17
2017-07-25T05:46:20.480Z,100042.36
2017-07-25T05:48:47.909Z,100044.24
2017-07-25T05:51:15.337Z,100047.83
2017-07-25T05:53:42.761Z,100046.08
2017-07-25T05:56:10.200Z,100047.11
2017-07-25T05:58:38.158Z,100045.62
2017-07-25T06:01:05.599Z,100046.55
2017-07-25T06:03:33.025Z,100042.83
2017-07-25T06:06:00.482Z,100039.72
2017-07-25T06:08:28.278Z,100035.39
2017-07-25T06:10:55.729Z,100026.93
2017-07-25T06:13:23.455Z,100024.75
2017-07-25T06:15:50.896Z,100029.72
2017-07-25T06:18:18.349Z,100019.02
2017-07-25T06:20:45.792Z,100018.67
2017-07-25T06:23:13.291Z,100014.81
2017-07-25T06:25:40.775Z,100010.05
2017-07-25T06:28:08.197Z,100019.70
2017-07-25T06:30:35.649Z,100016.19
2017-07-25T06:33:03.116Z,100015.84
2017-07-25T06:35:30.572Z,100011.18
2017-07-25T06:37:58.014Z,100018.15
2017-07-25T06:40:25.441Z,100016.02
2017-07-25T06:42:52.883Z,100012.56
2017-07-25T06:45:20.406Z,100010.01
2017-07-25T06:47:47.829Z,100012.21
2017-07-25T06:50:15.281Z,100016.97
2017-07-25T06:52:42.778Z,100027.52
2017-07-25T06:55:10.215Z,100029.73
2017-07-25T06:57:37.642Z,100031.45
2017-07-25T07:00:05.147Z,100033.19
2017-07-25T07:02:32.609Z,100024.97
2017-07-25T07:05:00.057Z,100032.42
2017-07-25T07:07:27.493Z,100032.42
2017-07-25T07:09:54.937Z,100032.42
2017-07-25T07:12:22.428Z,100030.70
2017-07-25T07:14:50.199Z,100034.63
2017-07-25T07:17:17.645Z,100035.05
2017-07-25T07:19:45.103Z,100035.94
2017-07-25T07:22:12.564Z,100040.77
2017-07-25T07:24:40.048Z,100047.39
2017-07-25T07:27:07.492Z,100048.28
2017-07-25T07:29:34.932Z,100050.01
2017-07-25T07:32:02.390Z,100056.15
2017-07-25T07:34:29.857Z,100058.77
2017-07-25T07:36:57.616Z,100061.94
2017-07-25T07:39:25.056Z,100058.83
2017-07-25T07:41:52.499Z,100064.14
2017-07-25T07:44:19.987Z,100065.45
2017-07-25T07:46:47.410Z,100068.97
2017-07-25T07:49:14.899Z,100076.35
2017-07-25T07:51:42.885Z,100066.28
2017-07-25T07:54:10.458Z,100076.70
2017-07-25T07:56:39.026Z,100070.15
2017-07-25T07:59:06.493Z,100066.63
2017-07-25T08:01:33.983Z,100062.83
2017-07-25T08:04:01.429Z,100062.48
2017-07-25T08:06:28.867Z,100060.70
2017-07-25T08:08:56.461Z,100066.35
2017-07-25T08:11:23.900Z,100062.83
2017-07-25T08:13:51.346Z,100066.41
2017-07-25T08:16:18.773Z,100063.80
2017-07-25T08:18:46.226Z,100059.97
2017-07-25T08:21:13.654Z,100060.76
2017-07-25T08:23:41.073Z,100064.97
2017-07-25T08:26:08.516Z,100060.63
2017-07-25T08:28:36.279Z,100055.45
2017-07-25T08:31:04.042Z,100060.28
2017-07-25T08:33:31.587Z,100063.89
2017-07-25T08:35:59.054Z,100064.28
2017-07-25T08:38:26.506Z,100066.41
2017-07-25T08:40:53.959Z,100064.69
2017-07-25T08:43:21.412Z,100069.45
2017-07-25T08:45:48.887Z,100066.52
2017-07-25T08:48:16.719Z,100070.03
2017-07-25T08:50:44.150Z,100061.75
2017-07-25T08:53:11.585Z,100072.00
2017-07-25T08:55:39.027Z,100067.16
2017-07-25T08:58:06.440Z,100062.62
2017-07-25T09:00:33.884Z,100068.95
2017-07-25T09:03:01.324Z,100059.16
2017-07-25T09:05:28.746Z,100063.41
2017-07-25T09:07:56.307Z,100060.78
2017-07-25T09:10:24.071Z,100055.22
2017-07-25T09:12:51.530Z,100057.05
2017-07-25T09:15:18.976Z,100052.77
2017-07-25T09:17:46.416Z,100050.70
2017-07-25T09:20:14.109Z,100048.70
2017-07-25T09:22:41.548Z,100048.80
2017-07-25T09:25:08.969Z,100047.31
2017-07-25T09:27:36.430Z,100055.22
2017-07-25T09:30:04.332Z,100050.70
2017-07-25T09:32:31.858Z,100038.75
2017-07-25T09:34:59.295Z,100042.17
2017-07-25T09:37:27.019Z,100039.55
2017-07-25T09:39:54.783Z,100036.52
2017-07-25T09:42:22.231Z,100036.36
2017-07-25T09:44:49.698Z,100033.39
2017-07-25T09:47:17.138Z,100035.14
2017-07-25T09:49:44.590Z,100027.07
2017-07-25T09:52:12.027Z,100026.38
2017-07-25T09:54:39.490Z,100023.51
2017-07-25T09:57:06.970Z,100021.85
2017-07-25T09:59:34.385Z,100026.34
2017-07-25T10:02:01.899Z,100020.67
2017-07-25T10:04:29.872Z,100007.64
2017-07-25T10:06:57.313Z,100011.64
2017-07-25T10:09:24.743Z,100015.16
2017-07-25T10:11:52.641Z,100009.98
2017-07-25T10:14:20.317Z,100012.12
2017-07-25T10:16:47.754Z,99999.50
2017-07-25T10:19:15.187Z,100003.08
2017-07-25T10:21:43.026Z,99999.22
2017-07-25T10:24:10.467Z,99995.63
2017-07-25T10:26:37.894Z,99997.84
2017-07-25T10:29:05.317Z,99996.19
2017-07-25T10:31:32.760Z,99995.77
2017-07-25T10:34:00.373Z,99991.77
2017-07-25T10:36:27.803Z,99988.31
2017-07-25T10:38:55.217Z,99985.56
2017-07-25T10:41:22.744Z,99981.70
2017-07-25T10:43:50.166Z,99974.94
2017-07-25T10:46:17.661Z,99981.28
2017-07-25T10:48:45.151Z,99975.52
2017-07-25T10:51:12.593Z,99967.66
2017-07-25T10:53:40.042Z,99962.00
2017-07-25T10:56:07.491Z,99964.20
2017-07-25T10:58:34.934Z,99957.59
2017-07-25T11:01:02.345Z,99953.31
2017-07-25T11:03:30.076Z,99955.03
2017-07-25T11:05:57.504Z,99952.00
2017-07-25T11:08:25.309Z,99948.97
2017-07-25T11:10:52.730Z,99945.10
2017-07-25T11:13:20.164Z,99941.23
2017-07-25T11:15:47.762Z,99940.83
2017-07-25T11:18:15.181Z,99946.00
2017-07-25T11:20:42.620Z,99946.89
2017-07-25T11:23:10.066Z,99948.27
2017-07-25T11:25:37.494Z,99945.72
2017-07-25T11:28:04.924Z,99950.48
2017-07-25T11:30:32.770Z,99944.34
2017-07-25T11:33:00.485Z,99945.23
2017-07-25T11:35:27.923Z,99939.17
2017-07-25T11:37:55.552Z,99942.27
2017-07-25T11:40:22.966Z,99940.55
2017-07-25T11:42:50.399Z,99933.58
2017-07-25T11:45:17.839Z,99939.23
2017-07-25T11:47:45.249Z,99935.30
2017-07-25T11:50:12.679Z,99934.00
2017-07-25T11:52:40.107Z,99933.58
2017-07-25T11:55:07.935Z,99932.27
2017-07-25T11:57:35.345Z,99930.95
2017-07-25T12:00:02.800Z,99931.44
2017-07-25T12:02:30.229Z,99938.82
2017-07-25T12:04:57.814Z,99934.89
2017-07-25T12:07:25.242Z,99938.41
2017-07-25T12:09:52.679Z,99937.99
2017-07-25T12:12:20.111Z,99933.23
2017-07-25T12:14:47.657Z,99935.86
2017-07-25T12:17:15.080Z,99930.23
2017-07-25T12:19:42.520Z,99925.37
2017-07-25T12:22:09.942Z,99932.75
2017-07-25T12:24:37.353Z,99931.92
2017-07-25T12:27:05.249Z,99927.61
2017-07-25T12:29:32.687Z,99926.30
2017-07-25T12:32:00.111Z,99928.92
2017-07-25T12:34:27.544Z,99927.20
2017-07-25T12:36:54.961Z,99923.75
2017-07-25T12:39:22.542Z,99928.09
2017-07-25T12:41:49.972Z,99930.72
2017-07-25T12:44:17.389Z,99925.89
2017-07-25T12:46:44.812Z,99923.75
2017-07-25T12:49:12.244Z,99922.44
2017-07-25T12:51:39.664Z,99919.41
2017-07-25T12:54:07.091Z,99918.98
2017-07-25T12:56:34.509Z,99915.55
2017-07-25T12:59:01.944Z,99917.99
2017-07-25T13:01:29.650Z,99906.50
2017-07-25T13:03:57.080Z,99916.95
2017-07-25T13:06:24.512Z,99908.11
2017-07-25T13:08:51.943Z,99909.33
2017-07-25T13:11:19.388Z,99912.41
2017-07-25T13:13:46.820Z,99899.61
2017-07-25T13:16:14.403Z,99896.42
2017-07-25T13:18:41.833Z,99885.41
2017-07-25T13:21:09.274Z,99877.63
2017-07-25T13:23:36.804Z,99905.03
2017-07-25T13:26:04.230Z,99889.70
2017-07-25T13:28:32.184Z,99886.80
2017-07-25T13:30:59.619Z,99903.98
2017-07-25T13:33:27.952Z,99903.64
2017-07-25T13:35:55.393Z,99905.78
2017-07-25T13:38:22.816Z,99902.72
2017-07-25T13:40:50.237Z,99901.97
2017-07-25T13:43:17.654Z,99906.50
2017-07-25T13:45:45.110Z,99904.67
2017-07-25T13:48:12.543Z,99913.34
2017-07-25T13:50:39.953Z,99908.86
2017-07-25T13:53:07.483Z,99902.44
2017-07-25T13:55:34.920Z,99908.78
2017-07-25T13:58:02.401Z,99911.52
2017-07-25T14:00:29.832Z,99911.16
2017-07-25T14:02:57.315Z,99905.99
2017-07-25T14:05:24.756Z,99909.99
2017-07-25T14:07:52.227Z,99902.61
2017-07-25T14:10:19.664Z,99907.92
2017-07-25T14:12:47.104Z,99903.58
2017-07-25T14:15:14.597Z,99905.44
2017-07-25T14:17:42.142Z,99904.13
2017-07-25T14:20:09.599Z,99897.58
2017-07-25T14:22:37.025Z,99892.82
2017-07-25T14:25:04.519Z,99893.72
2017-07-25T14:27:31.937Z,99887.58
2017-07-25T14:29:59.358Z,99885.92
2017-07-25T14:32:26.769Z,99885.44
2017-07-25T14:34:54.250Z,99875.44
2017-07-25T14:37:21.675Z,99876.34
2017-07-25T14:39:49.100Z,99868.95
2017-07-25T14:42:16.535Z,99875.03
2017-07-25T14:44:43.954Z,99876.82
2017-07-25T14:47:11.772Z,99862.89
2017-07-25T14:49:39.187Z,99869.86
2017-07-25T14:52:06.761Z,99865.44
2017-07-25T14:54:34.181Z,99862.41
2017-07-25T14:57:01.593Z,99863.72
2017-07-25T14:59:29.142Z,99869.44
2017-07-25T15:01:56.576Z,99864.61
2017-07-25T15:04:24.012Z,99866.34
2017-07-25T15:06:51.499Z,99851.61
2017-07-25T15:09:18.919Z,99861.16
2017-07-25T15:11:46.415Z,99863.41
2017-07-25T15:14:13.825Z,99867.72
2017-07-25T15:16:41.252Z,99857.23
2017-07-25T15:19:08.675Z,99859.78
2017-07-25T15:21:36.108Z,99863.41
2017-07-25T15:24:06.377Z,99852.09
2017-07-25T15:26:34.056Z,99851.27
2017-07-25T15:29:01.494Z,99848.64
2017-07-25T15:31:29.152Z,99850.51
2017-07-25T15:33:56.578Z,99842.58
2017-07-25T15:36:24.279Z,99850.02
2017-07-25T15:38:51.712Z,99844.44
2017-07-25T15:41:20.016Z,99846.99
2017-07-25T15:43:47.480Z,99843.06
2017-07-25T15:46:15.846Z,99839.55
2017-07-25T15:48:43.320Z,99839.61
2017-07-25T15:51:10.756Z,99834.37
2017-07-25T15:53:38.183Z,99826.16
2017-07-25T15:56:05.623Z,99827.89
2017-07-25T15:58:33.331Z,99820.86
2017-07-25T16:01:00.779Z,99818.64
2017-07-25T16:03:28.947Z,99815.27
2017-07-25T16:05:56.619Z,99816.17
2017-07-25T16:08:24.455Z,99810.44
2017-07-25T16:10:52.366Z,99810.44
2017-07-25T16:13:19.782Z,99815.20
2017-07-25T16:15:47.677Z,99796.00
2017-07-25T16:18:15.349Z,99800.73
2017-07-25T16:20:42.901Z,99793.70
2017-07-25T16:23:10.358Z,99792.85
2017-07-25T16:25:37.777Z,99794.19
2017-07-25T16:28:05.212Z,99794.00
2017-07-25T16:30:32.863Z,99781.69
2017-07-25T16:33:00.504Z,99780.35
2017-07-25T16:35:27.927Z,99782.83
2017-07-25T16:37:55.863Z,99786.27
2017-07-25T16:40:23.295Z,99787.75
2017-07-25T16:42:50.719Z,99801.93
2017-07-25T16:45:20.354Z,99798.23
2017-07-25T17:33:55.815Z,99812.28
2017-07-25T17:36:24.903Z,99811.66
2017-07-25T17:38:54.972Z,99810.33
2017-07-25T17:41:24.066Z,99813.36
2017-07-25T17:43:53.384Z,99809.31
2017-07-25T17:46:22.923Z,99814.93
2017-07-25T18:12:51.536Z,99818.16
2017-07-25T18:15:21.705Z,99822.86
2017-07-25T18:25:25.911Z,99979.74
2017-07-25T18:27:55.370Z,99989.56
2017-07-25T18:30:24.491Z,99991.56
2017-07-25T18:32:53.616Z,99994.42
2017-07-25T18:35:22.853Z,100004.59
2017-07-25T18:37:52.040Z,99996.31
2017-07-25T18:40:21.555Z,100005.27
2017-07-25T18:42:50.665Z,100006.33
2017-07-25T18:45:20.017Z,100007.72
2017-07-25T18:47:49.362Z,100008.52
2017-07-25T18:50:18.827Z,100021.39
